createdAt,value
2018-07-28T00:01:01.781Z,55.10
2018-07-28T00:03:27.791Z,55.39
2018-07-28T00:05:53.826Z,55.81
2018-07-28T00:08:19.846Z,55.01
2018-07-28T00:10:45.836Z,57.03
2018-07-28T00:13:11.890Z,55.51
2018-07-28T00:15:37.924Z,56.42
2018-07-28T00:18:04.052Z,56.76
2018-07-28T00:20:30.070Z,56.61
2018-07-28T00:22:56.106Z,56.15
2018-07-28T00:25:22.119Z,56.28
2018-07-28T00:27:48.173Z,55.82
2018-07-28T00:30:14.206Z,56.04
2018-07-28T00:32:40.247Z,57.94
2018-07-28T00:35:06.416Z,57.10
2018-07-28T00:37:32.482Z,58.79
2018-07-28T00:39:58.522Z,58.80
2018-07-28T00:42:24.508Z,59.87
2018-07-28T00:44:50.521Z,58.96
2018-07-28T00:47:16.514Z,59.38
2018-07-28T00:49:42.579Z,57.97
2018-07-28T00:52:08.678Z,61.00
2018-07-28T00:54:34.687Z,59.77
2018-07-28T00:57:00.684Z,60.19
2018-07-28T00:59:26.698Z,59.68
2018-07-28T01:01:52.748Z,59.96
2018-07-28T01:04:18.786Z,61.44
2018-07-28T01:06:44.819Z,60.92
2018-07-28T01:09:10.843Z,60.26
2018-07-28T01:11:36.884Z,60.62
2018-07-28T01:14:02.879Z,60.53
2018-07-28T01:16:29.009Z,60.26
2018-07-28T01:18:55.023Z,59.75
2018-07-28T01:21:21.063Z,60.44
2018-07-28T01:23:47.068Z,60.57
2018-07-28T01:26:13.084Z,60.13
2018-07-28T01:28:39.093Z,61.00
2018-07-28T01:31:05.146Z,60.31
2018-07-28T01:33:31.170Z,59.76
2018-07-28T01:35:57.206Z,61.82
2018-07-28T01:38:23.243Z,61.40
2018-07-28T01:40:49.236Z,60.54
2018-07-28T01:43:15.262Z,60.35
2018-07-28T01:45:41.325Z,60.47
2018-07-28T01:48:07.315Z,60.14
2018-07-28T01:50:33.343Z,60.80
2018-07-28T01:52:59.352Z,59.08
2018-07-28T01:55:25.481Z,59.24
2018-07-28T01:57:51.549Z,60.39
2018-07-28T02:02:43.455Z,61.75
2018-07-28T02:05:09.469Z,62.76
2018-07-28T02:07:35.471Z,63.08
2018-07-28T02:10:01.506Z,61.29
2018-07-28T02:12:27.519Z,60.01
2018-07-28T02:14:53.535Z,60.27
2018-07-28T02:17:19.561Z,60.82
2018-07-28T02:19:45.585Z,60.33
2018-07-28T02:22:11.613Z,60.33
2018-07-28T02:24:37.608Z,61.59
2018-07-28T02:27:03.633Z,62.91
2018-07-28T02:29:29.674Z,60.54
2018-07-28T02:31:55.687Z,60.67
2018-07-28T02:34:21.699Z,62.19
2018-07-28T02:36:47.729Z,61.38
2018-07-28T02:39:13.746Z,64.63
2018-07-28T02:41:39.772Z,62.82
2018-07-28T02:44:05.764Z,59.30
2018-07-28T02:46:31.783Z,59.18
2018-07-28T02:48:57.779Z,62.01
2018-07-28T02:51:23.813Z,61.44
2018-07-28T02:53:49.827Z,60.16
2018-07-28T02:56:16.154Z,62.77
2018-07-28T02:58:42.487Z,64.45
2018-07-28T03:01:08.508Z,64.31
2018-07-28T03:03:34.525Z,62.31
2018-07-28T03:06:00.555Z,61.54
2018-07-28T03:08:26.567Z,63.19
2018-07-28T03:10:52.579Z,62.62
2018-07-28T03:13:18.636Z,65.58
2018-07-28T03:15:44.661Z,64.73
2018-07-28T03:18:10.666Z,63.42
2018-07-28T03:20:36.703Z,63.74
2018-07-28T03:23:03.031Z,63.35
2018-07-28T03:25:29.046Z,63.53
2018-07-28T03:27:55.068Z,65.16
2018-07-28T03:30:21.098Z,63.55
2018-07-28T03:32:47.390Z,65.01
2018-07-28T03:35:13.404Z,65.98
2018-07-28T03:37:39.416Z,66.42
2018-07-28T03:40:05.442Z,66.14
2018-07-28T03:42:31.460Z,65.11
2018-07-28T03:44:57.454Z,63.65
2018-07-28T03:47:23.465Z,63.60
2018-07-28T03:49:49.583Z,61.39
2018-07-28T03:52:15.618Z,59.63
2018-07-28T03:54:41.635Z,61.16
2018-07-28T03:57:07.650Z,60.02
2018-07-28T03:59:33.677Z,59.34
2018-07-28T04:01:59.719Z,60.86
2018-07-28T04:04:25.745Z,58.58
2018-07-28T04:06:51.777Z,58.75
2018-07-28T04:09:17.791Z,57.24
2018-07-28T04:11:43.888Z,59.29
2018-07-28T04:15:35.578Z,56.51
2018-07-28T04:18:01.606Z,57.04
2018-07-28T04:20:27.708Z,56.44
2018-07-28T04:22:53.754Z,57.65
2018-07-28T04:25:19.748Z,56.19
2018-07-28T04:27:45.758Z,54.55
2018-07-28T04:30:11.786Z,58.41
2018-07-28T04:32:37.798Z,55.78
2018-07-28T04:35:03.815Z,56.01
2018-07-28T04:37:29.804Z,57.22
2018-07-28T04:39:55.837Z,58.18
2018-07-28T04:42:21.829Z,55.42
2018-07-28T04:44:47.845Z,56.05
2018-07-28T04:47:13.872Z,57.59
2018-07-28T04:49:39.916Z,58.42
2018-07-28T04:52:05.950Z,58.16
2018-07-28T04:54:31.963Z,55.90
2018-07-28T04:56:58.046Z,59.22
2018-07-28T04:59:24.074Z,58.79
2018-07-28T05:01:50.133Z,56.50
2018-07-28T05:04:16.124Z,58.47
2018-07-28T05:06:42.155Z,59.73
2018-07-28T05:09:08.228Z,57.82
2018-07-28T05:11:34.208Z,58.18
2018-07-28T05:14:00.230Z,60.39
2018-07-28T05:16:26.254Z,61.55
2018-07-28T05:18:52.282Z,60.69
2018-07-28T05:21:18.386Z,62.42
2018-07-28T05:23:44.418Z,61.90
2018-07-28T05:26:10.453Z,61.96
2018-07-28T05:28:36.468Z,60.88
2018-07-28T05:31:02.798Z,59.91
2018-07-28T05:33:28.849Z,60.63
2018-07-28T05:35:54.855Z,60.78
2018-07-28T05:38:21.179Z,61.03
2018-07-28T05:40:47.168Z,60.45
2018-07-28T05:43:13.210Z,61.91
2018-07-28T05:45:39.216Z,60.73
2018-07-28T05:48:05.253Z,61.36
2018-07-28T05:50:31.247Z,61.58
2018-07-28T05:52:57.256Z,59.60
2018-07-28T05:55:23.336Z,61.66
2018-07-28T05:57:49.377Z,61.68
2018-07-28T06:00:15.410Z,60.33
2018-07-28T06:02:41.499Z,60.66
2018-07-28T06:05:07.477Z,63.15
2018-07-28T06:07:33.576Z,60.31
2018-07-28T06:09:59.597Z,59.22
2018-07-28T06:12:25.645Z,56.77
2018-07-28T06:14:51.701Z,56.91
2018-07-28T06:17:17.722Z,55.51
2018-07-28T06:19:43.789Z,54.57
2018-07-28T06:22:09.807Z,54.00
2018-07-28T06:24:35.839Z,52.86
2018-07-28T06:27:01.856Z,53.17
2018-07-28T06:29:28.013Z,51.66
2018-07-28T06:31:54.318Z,51.26
2018-07-28T06:34:20.484Z,51.98
2018-07-28T06:36:46.469Z,51.25
2018-07-28T06:39:12.486Z,51.79
2018-07-28T06:41:38.484Z,50.91
2018-07-28T06:44:04.529Z,51.70
2018-07-28T06:46:30.575Z,52.88
2018-07-28T06:48:56.644Z,51.52
2018-07-28T06:51:22.656Z,51.78
2018-07-28T06:53:48.782Z,53.79
2018-07-28T06:56:14.769Z,52.72
2018-07-28T06:58:40.849Z,52.91
2018-07-28T07:01:06.835Z,53.76
2018-07-28T07:03:32.880Z,54.52
2018-07-28T07:05:58.892Z,54.74
2018-07-28T07:08:24.934Z,54.30
2018-07-28T07:10:51.418Z,53.23
2018-07-28T07:13:17.443Z,53.07
2018-07-28T07:15:46.684Z,53.14
2018-07-28T07:18:12.699Z,54.08
2018-07-28T07:20:38.696Z,54.03
2018-07-28T07:23:05.020Z,55.05
2018-07-28T07:25:31.030Z,53.43
2018-07-28T07:27:57.058Z,54.40
2018-07-28T07:30:23.429Z,54.95
2018-07-28T07:32:49.504Z,53.95
2018-07-28T07:35:15.518Z,54.70
2018-07-28T07:37:41.572Z,53.90
2018-07-28T07:40:07.607Z,54.06
2018-07-28T07:42:33.647Z,55.30
2018-07-28T07:44:59.665Z,55.37
2018-07-28T07:47:25.726Z,57.52
2018-07-28T07:49:51.733Z,60.03
2018-07-28T07:52:17.732Z,66.27
2018-07-28T07:54:43.735Z,68.66
2018-07-28T07:57:09.745Z,68.62
2018-07-28T07:59:35.766Z,67.08
2018-07-28T08:02:01.793Z,68.08
2018-07-28T08:04:27.792Z,65.89
2018-07-28T08:06:54.903Z,73.79
2018-07-28T08:09:20.925Z,70.30
2018-07-28T08:11:46.939Z,67.01
2018-07-28T08:14:12.955Z,67.13
2018-07-28T08:16:39.268Z,65.90
2018-07-28T08:19:05.316Z,67.10
2018-07-28T08:21:31.312Z,64.28
2018-07-28T08:23:57.369Z,66.33
2018-07-28T08:26:23.392Z,66.02
2018-07-28T08:28:49.424Z,65.46
2018-07-28T08:31:15.462Z,63.41
2018-07-28T08:33:41.508Z,60.89
2018-07-28T08:36:07.611Z,61.85
2018-07-28T08:38:33.786Z,60.38
2018-07-28T08:40:59.800Z,59.92
2018-07-28T08:43:25.841Z,59.95
2018-07-28T08:45:51.835Z,60.29
2018-07-28T08:48:17.868Z,59.93
2018-07-28T08:50:43.908Z,59.09
2018-07-28T08:53:09.955Z,59.63
2018-07-28T08:55:36.042Z,61.48
2018-07-28T08:58:02.106Z,63.02
2018-07-28T09:00:28.152Z,61.79
2018-07-28T09:02:54.221Z,60.78
2018-07-28T09:05:20.244Z,61.26
2018-07-28T09:07:46.302Z,59.21
2018-07-28T09:10:12.342Z,59.84
2018-07-28T09:12:38.362Z,59.59
2018-07-28T09:15:04.437Z,59.80
2018-07-28T09:17:30.472Z,58.83
2018-07-28T09:19:56.505Z,59.63
2018-07-28T09:22:22.523Z,60.42
2018-07-28T09:24:48.535Z,59.13
2018-07-28T09:27:14.547Z,59.24
2018-07-28T09:29:40.540Z,59.98
2018-07-28T09:32:06.905Z,59.76
2018-07-28T09:34:33.190Z,60.84
2018-07-28T09:36:59.291Z,65.66
2018-07-28T09:39:25.247Z,67.31
2018-07-28T09:41:51.271Z,66.91
2018-07-28T09:44:17.276Z,68.38
2018-07-28T09:46:43.318Z,67.28
2018-07-28T09:49:09.370Z,64.14
2018-07-28T09:51:35.360Z,60.93
2018-07-28T09:54:01.364Z,61.16
2018-07-28T09:56:27.356Z,60.09
2018-07-28T09:58:53.367Z,59.74
2018-07-28T10:01:19.380Z,59.85
2018-07-28T10:03:45.577Z,59.37
2018-07-28T10:06:11.584Z,58.71
2018-07-28T10:08:37.819Z,58.80
2018-07-28T10:11:03.810Z,57.89
2018-07-28T10:13:29.840Z,57.59
2018-07-28T10:15:55.863Z,57.56
2018-07-28T10:18:21.888Z,55.63
2018-07-28T10:20:47.913Z,54.91
2018-07-28T10:23:13.946Z,54.32
2018-07-28T10:25:39.993Z,54.22
2018-07-28T10:28:06.066Z,53.73
2018-07-28T10:30:32.120Z,54.12
2018-07-28T10:32:58.126Z,52.40
2018-07-28T10:35:24.204Z,53.53
2018-07-28T10:37:50.208Z,52.12
2018-07-28T10:40:16.246Z,51.64
2018-07-28T10:42:42.319Z,51.04
2018-07-28T10:45:08.362Z,50.77
2018-07-28T10:47:34.379Z,49.89
2018-07-28T10:50:00.381Z,48.64
2018-07-28T10:52:26.384Z,48.29
2018-07-28T10:54:52.403Z,49.57
2018-07-28T10:57:18.403Z,49.04
2018-07-28T10:59:44.419Z,47.83
2018-07-28T11:02:10.454Z,47.81
2018-07-28T11:04:36.756Z,46.63
2018-07-28T11:07:02.825Z,45.81
2018-07-28T11:09:28.823Z,45.82
2018-07-28T11:11:54.842Z,45.99
2018-07-28T11:14:20.883Z,46.20
2018-07-28T11:16:46.907Z,45.72
2018-07-28T11:19:12.929Z,45.12
2018-07-28T11:21:38.965Z,45.66
2018-07-28T11:24:04.987Z,46.04
2018-07-28T11:26:31.009Z,45.51
2018-07-28T11:28:57.034Z,45.71
2018-07-28T11:31:23.048Z,44.82
2018-07-28T11:33:49.059Z,45.89
2018-07-28T11:36:15.056Z,45.01
2018-07-28T11:38:41.109Z,43.54
2018-07-28T11:41:07.161Z,44.81
2018-07-28T11:43:33.183Z,42.87
2018-07-28T11:45:59.265Z,43.41
2018-07-28T11:48:25.257Z,41.63
2018-07-28T11:50:51.275Z,42.83
2018-07-28T11:53:17.291Z,41.71
2018-07-28T11:56:32.569Z,41.54
2018-07-28T11:58:58.582Z,41.34
2018-07-28T12:01:24.611Z,40.83
2018-07-28T12:03:50.619Z,41.11
2018-07-28T12:06:16.675Z,41.31
2018-07-28T12:08:42.768Z,39.04
2018-07-28T12:11:08.779Z,38.72
2018-07-28T12:13:34.794Z,39.91
2018-07-28T12:16:00.812Z,36.65
2018-07-28T12:18:26.895Z,35.04
2018-07-28T12:20:52.852Z,34.01
2018-07-28T12:23:18.889Z,31.98
2018-07-28T12:25:45.225Z,32.25
2018-07-28T12:28:11.239Z,29.69
2018-07-28T12:30:37.228Z,29.48
2018-07-28T12:33:03.250Z,27.43
2018-07-28T12:35:29.301Z,27.53
2018-07-28T12:37:55.341Z,28.00
2018-07-28T12:40:21.339Z,28.87
2018-07-28T12:42:47.353Z,29.84
2018-07-28T12:45:13.371Z,28.72
2018-07-28T12:47:39.402Z,27.06
2018-07-28T12:50:05.434Z,26.86
2018-07-28T12:52:31.447Z,25.53
2018-07-28T12:54:57.459Z,24.55
2018-07-28T12:57:23.677Z,22.49
2018-07-28T12:59:49.671Z,22.26
2018-07-28T13:02:20.430Z,22.02
2018-07-28T13:04:46.482Z,21.91
2018-07-28T13:07:12.518Z,21.01
2018-07-28T13:09:39.034Z,21.30
2018-07-28T13:12:05.094Z,21.39
2018-07-28T13:14:31.117Z,21.78
2018-07-28T13:16:57.204Z,22.28
2018-07-28T13:19:23.233Z,23.94
2018-07-28T13:21:49.278Z,25.79
2018-07-28T13:24:15.310Z,25.55
2018-07-28T13:26:41.310Z,25.67
2018-07-28T13:29:07.328Z,24.11
2018-07-28T13:31:33.399Z,24.02
2018-07-28T13:33:59.449Z,23.60
2018-07-28T13:36:25.835Z,24.75
2018-07-28T13:38:51.868Z,26.69
2018-07-28T13:41:17.922Z,27.60
2018-07-28T13:43:43.920Z,27.84
2018-07-28T13:46:09.937Z,28.57
2018-07-28T13:48:35.983Z,28.56
2018-07-28T13:51:02.021Z,28.47
2018-07-28T13:53:28.112Z,26.54
2018-07-28T13:55:54.053Z,26.10
2018-07-28T13:58:20.073Z,25.01
2018-07-28T14:00:46.139Z,25.54
2018-07-28T14:03:12.187Z,25.54
2018-07-28T14:05:38.195Z,26.02
2018-07-28T14:08:04.210Z,28.34
2018-07-28T14:10:30.247Z,28.42
2018-07-28T14:12:56.296Z,29.94
2018-07-28T14:15:22.337Z,29.37
2018-07-28T14:17:48.375Z,28.35
2018-07-28T14:20:14.387Z,28.67
2018-07-28T14:22:40.418Z,26.66
2018-07-28T14:25:06.455Z,25.20
2018-07-28T14:27:32.523Z,24.39
2018-07-28T14:29:58.562Z,22.99
2018-07-28T14:32:24.718Z,22.08
2018-07-28T14:34:50.824Z,20.06
2018-07-28T14:37:16.910Z,20.15
2018-07-28T14:39:43.025Z,20.79
2018-07-28T14:42:09.066Z,21.91
2018-07-28T14:44:35.519Z,23.01
2018-07-28T14:47:01.544Z,23.05
2018-07-28T14:49:27.564Z,24.18
2018-07-28T14:51:53.622Z,24.90
2018-07-28T14:54:19.662Z,25.43
2018-07-28T14:58:08.307Z,26.42
2018-07-28T15:00:34.327Z,27.17
2018-07-28T15:03:00.370Z,28.08
2018-07-28T15:05:26.387Z,28.45
2018-07-28T15:07:52.633Z,28.05
2018-07-28T15:10:18.666Z,28.86
2018-07-28T15:12:44.740Z,29.73
2018-07-28T15:15:10.759Z,28.65
2018-07-28T15:17:37.439Z,26.45
2018-07-28T15:20:03.466Z,25.15
2018-07-28T15:22:29.529Z,23.53
2018-07-28T15:24:55.578Z,23.80
2018-07-28T15:27:21.619Z,24.40
2018-07-28T15:29:47.612Z,25.46
2018-07-28T15:32:13.981Z,26.22
2018-07-28T15:34:39.996Z,28.89
2018-07-28T15:37:06.031Z,30.23
2018-07-28T15:39:32.097Z,30.56
2018-07-28T15:41:58.151Z,31.79
2018-07-28T15:44:24.246Z,32.63
2018-07-28T15:46:52.594Z,35.10
2018-07-28T15:49:18.681Z,36.59
2018-07-28T15:51:44.640Z,48.04
2018-07-28T15:54:10.672Z,42.00
2018-07-28T15:56:36.667Z,42.38
2018-07-28T15:59:02.927Z,43.57
2018-07-28T16:01:28.968Z,43.16
2018-07-28T16:03:55.124Z,44.37
2018-07-28T16:06:21.130Z,44.96
2018-07-28T16:08:47.132Z,44.74
2018-07-28T16:11:13.154Z,43.91
2018-07-28T16:13:39.169Z,43.62
2018-07-28T16:16:06.423Z,44.81
2018-07-28T16:18:32.441Z,45.48
2018-07-28T16:20:58.473Z,48.26
2018-07-28T16:23:24.495Z,50.49
2018-07-28T16:25:50.560Z,46.91
2018-07-28T16:28:16.647Z,44.72
2018-07-28T16:30:42.686Z,43.87
2018-07-28T16:33:08.702Z,44.24
2018-07-28T16:35:34.737Z,43.42
2018-07-28T16:38:00.767Z,43.64
2018-07-28T16:40:26.843Z,44.04
2018-07-28T16:42:52.925Z,42.03
2018-07-28T16:45:19.082Z,41.47
2018-07-28T16:47:45.118Z,41.52
2018-07-28T16:50:11.411Z,40.24
2018-07-28T16:52:37.520Z,40.75
2018-07-28T16:55:03.544Z,41.60
2018-07-28T16:57:29.544Z,40.26
2018-07-28T16:59:55.582Z,40.29
2018-07-28T17:02:21.621Z,38.35
2018-07-28T17:04:47.636Z,37.32
2018-07-28T17:07:14.160Z,36.90
2018-07-28T17:09:40.060Z,37.51
2018-07-28T17:12:06.118Z,38.79
2018-07-28T17:14:32.193Z,39.51
2018-07-28T17:16:58.203Z,39.94
2018-07-28T17:19:24.233Z,40.13
2018-07-28T17:21:50.535Z,41.15
2018-07-28T17:24:16.853Z,41.50
2018-07-28T17:26:42.963Z,41.47
2018-07-28T17:29:08.973Z,41.46
2018-07-28T17:31:35.003Z,41.93
2018-07-28T17:34:01.010Z,42.32
2018-07-28T17:36:27.057Z,44.38
2018-07-28T17:38:53.128Z,44.33
2018-07-28T17:41:19.193Z,43.82
2018-07-28T17:43:45.188Z,45.37
2018-07-28T17:46:11.247Z,44.96
2018-07-28T17:48:37.255Z,44.65
2018-07-28T17:51:03.275Z,47.12
2018-07-28T17:53:29.383Z,47.67
2018-07-28T17:55:55.366Z,48.62
2018-07-28T17:58:21.380Z,48.14
2018-07-28T18:00:47.376Z,48.99
2018-07-28T18:03:13.391Z,49.76
2018-07-28T18:05:39.759Z,49.59
2018-07-28T18:08:05.779Z,51.45
2018-07-28T18:10:31.767Z,51.39
2018-07-28T18:12:57.788Z,51.60
2018-07-28T18:15:23.853Z,51.44
2018-07-28T18:17:49.908Z,50.42
2018-07-28T18:20:15.971Z,54.06
2018-07-28T18:22:41.987Z,52.59
2018-07-28T18:25:07.997Z,53.29
2018-07-28T18:27:34.017Z,53.73
2018-07-28T18:30:00.039Z,55.85
2018-07-28T18:32:26.054Z,55.00
2018-07-28T18:34:52.136Z,56.23
2018-07-28T18:37:18.198Z,54.12
2018-07-28T18:39:44.215Z,53.50
2018-07-28T18:42:10.230Z,53.36
2018-07-28T18:44:36.264Z,53.01
2018-07-28T18:47:02.616Z,55.11
2018-07-28T18:49:28.642Z,54.87
2018-07-28T18:51:54.632Z,55.03
2018-07-28T18:54:20.658Z,56.37
2018-07-28T18:56:46.691Z,55.40
2018-07-28T18:59:12.743Z,56.27
2018-07-28T19:01:38.750Z,55.48
2018-07-28T19:04:04.783Z,57.05
2018-07-28T19:06:31.103Z,56.85
2018-07-28T19:08:57.141Z,58.71
2018-07-28T19:11:23.151Z,58.70
2018-07-28T19:13:49.186Z,60.12
2018-07-28T19:16:15.207Z,59.66
2018-07-28T19:18:41.253Z,60.99
2018-07-28T19:21:07.403Z,62.05
2018-07-28T19:23:33.430Z,61.85
2018-07-28T19:25:59.428Z,63.04
2018-07-28T19:28:25.479Z,63.85
2018-07-28T19:30:51.904Z,64.54
2018-07-28T19:33:17.929Z,64.88
2018-07-28T19:35:44.033Z,64.34
2018-07-28T19:38:10.059Z,65.18
2018-07-28T19:40:36.068Z,66.31
2018-07-28T19:43:02.130Z,66.43
2018-07-28T19:45:28.155Z,66.58
2018-07-28T19:47:54.207Z,67.17
2018-07-28T19:50:20.241Z,69.41
2018-07-28T19:52:46.295Z,66.79
2018-07-28T19:55:12.315Z,66.50
2018-07-28T19:57:38.328Z,67.81
2018-07-28T20:00:04.336Z,68.04
2018-07-28T20:02:30.353Z,66.74
2018-07-28T20:04:56.389Z,67.57
2018-07-28T20:07:22.384Z,69.24
2018-07-28T20:09:48.512Z,68.87
2018-07-28T20:12:14.590Z,70.03
2018-07-28T20:14:40.616Z,70.47
2018-07-28T20:17:06.703Z,69.08
2018-07-28T20:19:32.777Z,70.36
2018-07-28T20:21:58.767Z,69.66
2018-07-28T20:24:24.868Z,68.30
2018-07-28T20:26:50.885Z,72.07
2018-07-28T20:29:16.923Z,69.46
2018-07-28T20:31:42.949Z,70.75
2018-07-28T20:34:08.982Z,70.79
2018-07-28T20:36:34.979Z,71.56
2018-07-28T20:39:01.023Z,73.80
2018-07-28T20:41:27.063Z,72.75
2018-07-28T20:43:53.092Z,72.49
2018-07-28T20:46:19.184Z,73.88
2018-07-28T20:48:45.243Z,73.90
2018-07-28T20:51:11.308Z,75.04
2018-07-28T20:53:37.332Z,76.31
2018-07-28T20:56:03.357Z,74.73
2018-07-28T21:00:34.368Z,75.92
2018-07-28T21:03:00.385Z,74.33
2018-07-28T21:05:26.402Z,74.81
2018-07-28T21:07:52.437Z,77.44
2018-07-28T21:10:18.470Z,76.87
2018-07-28T21:12:44.472Z,75.90
2018-07-28T21:15:10.490Z,76.50
2018-07-28T21:17:36.496Z,77.26
2018-07-28T21:20:02.519Z,78.01
2018-07-28T21:22:28.556Z,75.45
2018-07-28T21:24:54.596Z,79.98
2018-07-28T21:27:20.593Z,75.70
2018-07-28T21:29:46.602Z,78.40
2018-07-28T21:32:12.603Z,78.70
2018-07-28T21:34:38.603Z,76.88
2018-07-28T21:37:04.638Z,76.66
2018-07-28T21:39:30.770Z,78.81
2018-07-28T21:41:56.779Z,80.38
2018-07-28T21:44:22.780Z,79.52
2018-07-28T21:46:48.793Z,78.19
2018-07-28T21:49:14.826Z,75.90
2018-07-28T21:51:40.843Z,78.08
2018-07-28T21:54:06.835Z,77.67
2018-07-28T21:56:33.155Z,77.12
2018-07-28T21:58:59.149Z,78.17
2018-07-28T22:01:25.177Z,77.85
2018-07-28T22:03:51.190Z,80.36
2018-07-28T22:06:17.185Z,79.17
2018-07-28T22:08:43.216Z,80.46
2018-07-28T22:11:09.261Z,81.37
2018-07-28T22:13:35.295Z,80.70
2018-07-28T22:16:01.288Z,81.72
2018-07-28T22:18:27.356Z,80.18
2018-07-28T22:20:53.395Z,80.79
2018-07-28T22:23:19.416Z,78.09
2018-07-28T22:25:45.424Z,77.93
2018-07-28T22:28:11.439Z,79.46
2018-07-28T22:30:37.428Z,80.04
2018-07-28T22:33:03.426Z,81.81
2018-07-28T22:35:29.434Z,81.76
2018-07-28T22:37:55.444Z,81.35
2018-07-28T22:40:21.464Z,79.73
2018-07-28T22:42:47.481Z,79.15
2018-07-28T22:45:13.476Z,81.05
2018-07-28T22:47:39.537Z,80.61
2018-07-28T22:50:05.568Z,80.94
2018-07-28T22:52:31.586Z,81.02
2018-07-28T22:54:57.621Z,80.31
2018-07-28T22:57:23.616Z,81.48
2018-07-28T22:59:49.669Z,78.98
2018-07-28T23:02:15.777Z,78.82
2018-07-28T23:04:41.815Z,80.16
2018-07-28T23:07:07.855Z,81.90
2018-07-28T23:09:33.900Z,80.98
2018-07-28T23:11:59.915Z,81.58
2018-07-28T23:14:25.994Z,81.38
2018-07-28T23:16:52.120Z,80.57
2018-07-28T23:19:18.155Z,79.85
2018-07-28T23:21:44.268Z,80.48
2018-07-28T23:24:10.299Z,79.01
2018-07-28T23:26:36.333Z,81.50
2018-07-28T23:29:02.413Z,82.57
2018-07-28T23:31:28.412Z,80.75
2018-07-28T23:33:54.450Z,81.30
2018-07-28T23:36:20.468Z,81.45
2018-07-28T23:38:46.507Z,81.26
2018-07-28T23:41:12.570Z,81.27
2018-07-28T23:43:38.630Z,81.12
2018-07-28T23:46:04.668Z,82.08
2018-07-28T23:48:30.734Z,79.95
2018-07-28T23:50:56.766Z,82.43
2018-07-28T23:53:22.768Z,80.63
2018-07-28T23:55:48.800Z,80.08
2018-07-28T23:58:14.812Z,81.47
